Terminal Aerodrome Forecast
Issued by NWS Paducah, KY

Home | Current Version | Previous Version | Text Only | Print | Product List | Glossary Off
Versions: 1 2 3 4 5 6 7 8 9 10 11 12 13 14 15 16

000
FTUS43 KPAH 200500
TAFEVV
TAF
KEVV 200520Z 2006/2106 VRB02KT P6SM SKC
     FM201400 21009KT P6SM SCT045
     FM210000 21005KT P6SM FEW050=

USA.gov is the U.S. government's official web portal to all federal, state and local government web resources and services.